Time,TemperatureF,DewpointF,PressureIn,WindDirection,WindDirectionDegrees,WindSpeedMPH,WindSpeedGustMPH,Humidity,HourlyPrecipIn,Conditions,Clouds,dailyrainin,SolarRadiationWatts/m^2,SoftwareType,DateUTC
2013-08-22 00:01:00,66.4,65.0,30.04,SSW,192,0.0,0.0,94,0.00,,,0.00,0,weatherlink.com 1.10,2013-08-22 04:01:00,
2013-08-22 00:16:00,66.1,65.0,30.05,SSW,192,0.0,0.0,95,0.00,,,0.00,0,weatherlink.com 1.10,2013-08-22 04:16:00,
2013-08-22 00:31:00,65.9,65.0,30.05,SSW,192,0.0,0.0,95,0.00,,,0.00,0,weatherlink.com 1.10,2013-08-22 04:31:00,
2013-08-22 00:46:00,65.6,64.0,30.06,SSW,192,0.0,0.0,95,0.00,,,0.00,0,weatherlink.com 1.10,2013-08-22 04:46:00,
2013-08-22 01:01:00,65.3,64.0,30.06,SSW,192,0.0,0.0,95,0.00,,,0.00,0,weatherlink.com 1.10,2013-08-22 05:01:00,
2013-08-22 01:16:00,65.2,64.0,30.06,SSW,192,0.0,0.0,95,0.00,,,0.00,0,weatherlink.com 1.10,2013-08-22 05:16:00,
2013-08-22 01:31:00,64.6,63.0,30.05,SSW,192,0.0,0.0,95,0.00,,,0.00,0,weatherlink.com 1.10,2013-08-22 05:31:00,
2013-08-22 01:46:00,64.4,63.0,30.06,SSW,192,0.0,0.0,95,0.00,,,0.00,0,weatherlink.com 1.10,2013-08-22 05:46:00,
2013-08-22 02:01:00,64.3,63.0,30.05,SSW,192,0.0,0.0,95,0.00,,,0.00,0,weatherlink.com 1.10,2013-08-22 06:01:00,
2013-08-22 02:16:00,64.1,63.0,30.05,SSW,192,0.0,0.0,95,0.00,,,0.00,0,weatherlink.com 1.10,2013-08-22 06:16:00,
2013-08-22 02:31:00,63.7,62.0,30.05,SSW,192,0.0,0.0,95,0.00,,,0.00,0,weatherlink.com 1.10,2013-08-22 06:31:00,
2013-08-22 02:46:00,63.4,62.0,30.05,SSW,192,0.0,0.0,95,0.00,,,0.00,0,weatherlink.com 1.10,2013-08-22 06:46:00,
2013-08-22 03:02:00,63.3,62.0,30.06,SSW,192,0.0,0.0,96,0.00,,,0.00,0,weatherlink.com 1.10,2013-08-22 07:02:00,
2013-08-22 03:16:00,63.0,62.0,30.05,SSW,192,0.0,0.0,96,0.00,,,0.00,0,weatherlink.com 1.10,2013-08-22 07:16:00,
2013-08-22 03:31:00,62.9,62.0,30.05,SSW,192,0.0,0.0,96,0.00,,,0.00,0,weatherlink.com 1.10,2013-08-22 07:31:00,
2013-08-22 03:46:00,62.7,62.0,30.04,SSW,192,0.0,0.0,96,0.00,,,0.00,0,weatherlink.com 1.10,2013-08-22 07:46:00,
2013-08-22 04:01:00,62.6,62.0,30.04,SSW,192,0.0,0.0,96,0.00,,,0.00,0,weatherlink.com 1.10,2013-08-22 08:01:00,
2013-08-22 04:16:00,62.3,61.0,30.04,SSW,192,0.0,0.0,96,0.00,,,0.00,0,weatherlink.com 1.10,2013-08-22 08:16:00,
2013-08-22 04:31:00,62.2,61.0,30.03,SSW,192,0.0,0.0,96,0.00,,,0.00,0,weatherlink.com 1.10,2013-08-22 08:31:00,
2013-08-22 04:46:00,62.0,61.0,30.02,SSW,192,0.0,0.0,96,0.00,,,0.00,0,weatherlink.com 1.10,2013-08-22 08:46:00,
2013-08-22 05:02:00,61.9,61.0,30.02,SSW,192,0.0,0.0,96,0.00,,,0.00,0,weatherlink.com 1.10,2013-08-22 09:02:00,
2013-08-22 05:17:00,61.9,61.0,30.01,SSW,192,0.0,0.0,96,0.00,,,0.00,0,weatherlink.com 1.10,2013-08-22 09:17:00,
2013-08-22 05:32:00,61.7,61.0,30.01,SSW,192,0.0,0.0,96,0.00,,,0.00,0,weatherlink.com 1.10,2013-08-22 09:32:00,
2013-08-22 05:47:00,61.5,60.0,30.00,SSW,192,0.0,0.0,96,0.00,,,0.00,0,weatherlink.com 1.10,2013-08-22 09:47:00,
2013-08-22 06:02:00,61.4,60.0,30.00,SSW,192,0.0,0.0,96,0.00,,,0.00,0,weatherlink.com 1.10,2013-08-22 10:02:00,
2013-08-22 06:17:00,61.3,60.0,30.00,SSW,192,0.0,0.0,96,0.00,,,0.00,0,weatherlink.com 1.10,2013-08-22 10:17:00,
2013-08-22 06:32:00,61.1,60.0,30.01,SSW,192,0.0,0.0,96,0.00,,,0.00,7,weatherlink.com 1.10,2013-08-22 10:32:00,
2013-08-22 06:47:00,61.4,60.0,30.00,SSW,192,0.0,0.0,96,0.00,,,0.00,11,weatherlink.com 1.10,2013-08-22 10:47:00,
2013-08-22 08:32:00,67.6,66.0,30.01,WNW,297,0.0,1.0,95,0.00,,,0.00,53,weatherlink.com 1.10,2013-08-22 12:32:00,
2013-08-22 08:47:00,68.2,67.0,30.01,WNW,290,0.0,1.0,94,0.00,,,0.00,63,weatherlink.com 1.10,2013-08-22 12:47:00,
2013-08-22 09:02:00,68.7,67.0,30.01,WSW,245,0.0,2.0,93,0.00,,,0.00,98,weatherlink.com 1.10,2013-08-22 13:02:00,
2013-08-22 09:17:00,69.9,67.0,30.01,SSW,198,1.0,3.0,91,0.00,,,0.00,86,weatherlink.com 1.10,2013-08-22 13:17:00,
2013-08-22 09:32:00,70.6,67.0,30.01,SSW,198,0.0,1.0,89,0.00,,,0.00,113,weatherlink.com 1.10,2013-08-22 13:32:00,
2013-08-22 09:47:00,71.7,67.0,30.01,SW,219,0.0,1.0,86,0.00,,,0.00,163,weatherlink.com 1.10,2013-08-22 13:47:00,
2013-08-22 10:02:00,72.6,68.0,30.01,South,181,0.0,2.0,85,0.00,,,0.00,153,weatherlink.com 1.10,2013-08-22 14:02:00,
2013-08-22 10:17:00,73.3,69.0,30.00,SSE,163,0.0,2.0,85,0.00,,,0.00,134,weatherlink.com 1.10,2013-08-22 14:17:00,
2013-08-22 10:32:00,74.2,70.0,30.00,NW,317,0.0,2.0,85,0.00,,,0.00,137,weatherlink.com 1.10,2013-08-22 14:32:00,
2013-08-22 10:47:00,75.2,69.0,30.00,NNW,329,0.0,1.0,82,0.00,,,0.00,144,weatherlink.com 1.10,2013-08-22 14:47:00,
2013-08-22 11:02:00,75.8,69.0,29.99,NW,307,0.0,2.0,78,0.00,,,0.00,146,weatherlink.com 1.10,2013-08-22 15:02:00,
2013-08-22 11:17:00,76.9,70.0,29.99,NW,319,0.0,4.0,79,0.00,,,0.00,594,weatherlink.com 1.10,2013-08-22 15:17:00,
2013-08-22 11:33:00,77.5,70.0,29.98,NW,304,0.0,1.0,78,0.00,,,0.00,613,weatherlink.com 1.10,2013-08-22 15:33:00,
2013-08-22 11:48:00,78.8,71.0,29.97,SSE,165,0.0,2.0,78,0.00,,,0.00,680,weatherlink.com 1.10,2013-08-22 15:48:00,
2013-08-22 12:03:00,79.3,71.0,29.98,NNW,346,0.0,2.0,75,0.00,,,0.00,715,weatherlink.com 1.10,2013-08-22 16:03:00,
2013-08-22 12:18:00,79.9,71.0,29.97,NNW,329,0.0,4.0,75,0.00,,,0.00,773,weatherlink.com 1.10,2013-08-22 16:18:00,
2013-08-22 12:33:00,81.6,73.0,29.97,NW,322,0.0,1.0,74,0.00,,,0.00,756,weatherlink.com 1.10,2013-08-22 16:33:00,
2013-08-22 12:48:00,80.4,72.0,29.96,NW,322,0.0,1.0,75,0.00,,,0.00,218,weatherlink.com 1.10,2013-08-22 16:48:00,
2013-08-22 13:03:00,79.3,72.0,29.95,NW,322,0.0,1.0,79,0.00,,,0.00,141,weatherlink.com 1.10,2013-08-22 17:03:00,
2013-08-22 13:18:00,80.1,73.0,29.94,NW,322,0.0,2.0,80,0.00,,,0.00,824,weatherlink.com 1.10,2013-08-22 17:18:00,
2013-08-22 13:33:00,82.7,72.0,29.93,NW,322,3.0,4.0,71,0.00,,,0.00,793,weatherlink.com 1.10,2013-08-22 17:33:00,
2013-08-22 13:48:00,83.8,74.0,29.92,WNW,292,1.0,4.0,73,0.00,,,0.00,853,weatherlink.com 1.10,2013-08-22 17:48:00,
2013-08-22 14:03:00,82.7,73.0,29.91,WNW,296,0.0,4.0,72,0.00,,,0.00,251,weatherlink.com 1.10,2013-08-22 18:03:00,
2013-08-22 14:18:00,82.7,73.0,29.91,NNW,333,0.0,3.0,72,0.00,,,0.00,847,weatherlink.com 1.10,2013-08-22 18:18:00,
2013-08-22 14:33:00,80.8,73.0,29.91,WSW,253,0.0,5.0,76,0.00,,,0.00,207,weatherlink.com 1.10,2013-08-22 18:33:00,
2013-08-22 14:48:00,82.2,73.0,29.91,ENE,66,0.0,4.0,73,0.00,,,0.00,779,weatherlink.com 1.10,2013-08-22 18:48:00,
2013-08-22 15:03:00,82.5,73.0,29.90,NNW,336,2.0,6.0,73,0.00,,,0.00,601,weatherlink.com 1.10,2013-08-22 19:03:00,
2013-08-22 15:18:00,81.6,73.0,29.90,WNW,293,0.0,4.0,76,0.00,,,0.00,250,weatherlink.com 1.10,2013-08-22 19:18:00,
2013-08-22 15:33:00,82.0,71.0,29.89,NW,322,0.0,3.0,70,0.00,,,0.00,589,weatherlink.com 1.10,2013-08-22 19:33:00,
2013-08-22 15:48:00,82.6,73.0,29.88,NNW,336,0.0,6.0,73,0.00,,,0.00,533,weatherlink.com 1.10,2013-08-22 19:48:00,
2013-08-22 16:03:00,82.0,72.0,29.87,NNW,344,0.0,4.0,72,0.00,,,0.00,545,weatherlink.com 1.10,2013-08-22 20:03:00,
2013-08-22 16:18:00,81.7,73.0,29.87,NW,318,0.0,3.0,74,0.00,,,0.00,424,weatherlink.com 1.10,2013-08-22 20:18:00,
2013-08-22 16:33:00,82.1,73.0,29.86,North,5,2.0,2.0,74,0.00,,,0.00,441,weatherlink.com 1.10,2013-08-22 20:33:00,
2013-08-22 17:03:00,82.2,74.0,29.86,NW,319,0.0,1.0,75,0.00,,,0.00,360,weatherlink.com 1.10,2013-08-22 21:03:00,
2013-08-22 17:18:00,82.5,74.0,29.85,WNW,299,0.0,2.0,76,0.00,,,0.00,357,weatherlink.com 1.10,2013-08-22 21:18:00,
2013-08-22 17:33:00,82.0,73.0,29.85,South,183,0.0,2.0,74,0.00,,,0.00,113,weatherlink.com 1.10,2013-08-22 21:33:00,
2013-08-22 17:48:00,81.5,73.0,29.85,NNW,345,0.0,1.0,76,0.00,,,0.00,288,weatherlink.com 1.10,2013-08-22 21:48:00,
2013-08-22 18:03:00,81.1,74.0,29.85,NNW,345,0.0,1.0,78,0.00,,,0.00,192,weatherlink.com 1.10,2013-08-22 22:03:00,
2013-08-22 18:18:00,80.3,73.0,29.85,NNW,344,0.0,1.0,78,0.00,,,0.00,160,weatherlink.com 1.10,2013-08-22 22:18:00,
2013-08-22 18:33:00,79.4,72.0,29.85,NNW,344,0.0,2.0,79,0.00,,,0.00,70,weatherlink.com 1.10,2013-08-22 22:33:00,
2013-08-22 18:48:00,78.3,72.0,29.85,NNW,344,0.0,1.0,82,0.00,,,0.00,46,weatherlink.com 1.10,2013-08-22 22:48:00,
2013-08-22 19:03:00,77.4,72.0,29.85,NNW,344,0.0,1.0,84,0.00,,,0.00,30,weatherlink.com 1.10,2013-08-22 23:03:00,
2013-08-22 19:18:00,76.7,72.0,29.84,NNW,344,0.0,0.0,85,0.00,,,0.00,16,weatherlink.com 1.10,2013-08-22 23:18:00,
2013-08-22 19:33:00,75.9,72.0,29.84,NNW,344,0.0,0.0,86,0.00,,,0.00,7,weatherlink.com 1.10,2013-08-22 23:33:00,
2013-08-22 19:48:00,75.5,71.0,29.84,NNW,344,0.0,0.0,87,0.00,,,0.00,0,weatherlink.com 1.10,2013-08-22 23:48:00,
2013-08-22 20:03:00,74.8,71.0,29.84,NNW,344,0.0,0.0,89,0.00,,,0.00,0,weatherlink.com 1.10,2013-08-23 00:03:00,
2013-08-22 20:18:00,74.3,71.0,29.84,NNW,344,0.0,0.0,90,0.00,,,0.00,0,weatherlink.com 1.10,2013-08-23 00:18:00,
2013-08-22 20:33:00,74.2,71.0,29.84,NNW,344,0.0,0.0,90,0.00,,,0.00,0,weatherlink.com 1.10,2013-08-23 00:33:00,
2013-08-22 20:48:00,73.9,71.0,29.84,NNW,344,0.0,0.0,90,0.00,,,0.00,0,weatherlink.com 1.10,2013-08-23 00:48:00,
2013-08-22 21:03:00,74.0,71.0,29.87,WNW,284,0.0,1.0,91,0.00,,,0.00,0,weatherlink.com 1.10,2013-08-23 01:03:00,
2013-08-22 21:18:00,74.8,71.0,29.88,NNW,331,0.0,1.0,89,0.00,,,0.00,0,weatherlink.com 1.10,2013-08-23 01:18:00,
2013-08-22 21:33:00,75.0,71.0,29.87,NNW,331,0.0,1.0,88,0.00,,,0.00,0,weatherlink.com 1.10,2013-08-23 01:33:00,
2013-08-22 21:48:00,74.7,70.0,29.87,NNW,331,0.0,1.0,84,0.00,,,0.00,0,weatherlink.com 1.10,2013-08-23 01:48:00,
2013-08-22 22:03:00,74.6,68.0,29.88,South,181,0.0,5.0,80,0.00,,,0.00,0,weatherlink.com 1.10,2013-08-23 02:03:00,
2013-08-22 22:18:00,73.9,67.0,29.88,South,184,0.0,1.0,80,0.00,,,0.00,0,weatherlink.com 1.10,2013-08-23 02:18:00,
2013-08-22 22:33:00,73.8,67.0,29.89,South,184,0.0,0.0,79,0.00,,,0.00,0,weatherlink.com 1.10,2013-08-23 02:33:00,
2013-08-22 22:48:00,73.1,67.0,29.89,South,184,0.0,1.0,82,0.00,,,0.00,0,weatherlink.com 1.10,2013-08-23 02:48:00,
2013-08-22 23:03:00,73.2,67.0,29.89,South,184,0.0,0.0,82,0.00,,,0.00,0,weatherlink.com 1.10,2013-08-23 03:03:00,
2013-08-22 23:18:00,72.9,67.0,29.89,South,184,0.0,0.0,82,0.00,,,0.00,0,weatherlink.com 1.10,2013-08-23 03:18:00,
2013-08-22 23:34:00,72.9,67.0,29.89,South,184,0.0,0.0,81,0.00,,,0.00,0,weatherlink.com 1.10,2013-08-23 03:34:00,
2013-08-22 23:49:00,73.2,67.0,29.89,North,355,0.0,0.0,80,0.00,,,0.00,0,weatherlink.com 1.10,2013-08-23 03:49:00,